Time;durP1;ratioP1;P1;durP2;ratioP2;P2;SDS_P1;SDS_P2;PMS_P1;PMS_P2;Temp;Humidity;BMP_temperature;BMP_pressure;BME280_temperature;BME280_humidity;BME280_pressure;Samples;Min_cycle;Max_cycle;Signal;HPM_P1;HPM_P2
2022/03/07 00:00:32;;;;;;;4.07;2.72;;;1.20;66.70;;;;;;5025214;28;20096;-66
2022/03/07 00:02:58;;;;;;;3.42;2.33;;;1.20;66.80;;;;;;5027662;28;20068;-66
2022/03/07 00:05:24;;;;;;;4.25;2.83;;;1.20;66.90;;;;;;5027832;28;20056;-66
2022/03/07 00:07:49;;;;;;;3.58;2.63;;;1.20;66.90;;;;;;5026463;28;20109;-66
2022/03/07 00:10:14;;;;;;;3.53;2.25;;;1.10;67.00;;;;;;5001219;28;20428;-66
2022/03/07 00:12:40;;;;;;;4.15;2.83;;;1.10;67.20;;;;;;5012308;28;20507;-66
2022/03/07 00:15:06;;;;;;;3.72;2.47;;;1.10;67.30;;;;;;5031692;28;20021;-66
2022/03/07 00:17:31;;;;;;;3.60;2.15;;;1.00;67.40;;;;;;5031645;28;20430;-66
2022/03/07 00:19:57;;;;;;;5.55;3.10;;;1.00;67.60;;;;;;5031506;28;20034;-66
2022/03/07 00:22:22;;;;;;;3.80;2.45;;;1.00;67.70;;;;;;5013642;28;20030;-66
2022/03/07 00:24:48;;;;;;;4.65;2.92;;;1.00;67.80;;;;;;5013657;28;20021;-66
2022/03/07 00:27:13;;;;;;;3.80;2.50;;;1.00;67.80;;;;;;5031631;28;20017;-66
2022/03/07 00:29:39;;;;;;;3.80;2.50;;;1.00;67.90;;;;;;5005339;28;20037;-66
2022/03/07 00:32:05;;;;;;;5.45;2.80;;;0.90;67.90;;;;;;5031358;28;20026;-66
2022/03/07 00:34:30;;;;;;;3.72;2.22;;;0.90;68.00;;;;;;5031230;28;20492;-66
2022/03/07 00:36:56;;;;;;;4.82;2.83;;;0.90;68.20;;;;;;5026004;28;20049;-66
2022/03/07 00:39:21;;;;;;;4.55;2.65;;;0.80;68.20;;;;;;5028355;28;20451;-66
2022/03/07 00:41:47;;;;;;;4.47;2.47;;;0.80;68.30;;;;;;5031149;28;20587;-66
2022/03/07 00:44:13;;;;;;;3.85;2.80;;;0.80;68.30;;;;;;5031269;28;20030;-66
2022/03/07 00:46:38;;;;;;;3.00;2.22;;;0.80;68.40;;;;;;5030884;28;20025;-66
2022/03/07 00:49:04;;;;;;;4.20;2.97;;;0.80;68.50;;;;;;5013058;28;20156;-66
2022/03/07 00:51:29;;;;;;;4.05;2.45;;;0.70;68.50;;;;;;5026632;28;20100;-66
2022/03/07 00:53:55;;;;;;;4.38;3.03;;;0.70;68.60;;;;;;5030452;28;20096;-66
2022/03/07 00:56:20;;;;;;;3.85;2.70;;;0.70;68.70;;;;;;5030714;28;20037;-66
2022/03/07 00:58:46;;;;;;;3.80;2.78;;;0.70;68.80;;;;;;5031030;28;20040;-66
2022/03/07 01:01:11;;;;;;;3.65;2.50;;;0.70;69.00;;;;;;5031317;28;20519;-66
2022/03/07 01:03:37;;;;;;;4.88;3.08;;;0.60;69.00;;;;;;5030824;28;20432;-66
2022/03/07 01:06:02;;;;;;;4.40;2.90;;;0.60;69.40;;;;;;4996822;28;20488;-66
2022/03/07 01:08:28;;;;;;;3.17;2.33;;;0.60;69.40;;;;;;5030800;28;20578;-66
2022/03/07 01:10:54;;;;;;;3.35;2.55;;;0.60;69.40;;;;;;5030835;28;20040;-66
2022/03/07 01:13:19;;;;;;;5.15;2.83;;;0.60;69.50;;;;;;5025033;28;20135;-66
2022/03/07 01:15:46;;;;;;;6.32;3.40;;;0.60;69.50;;;;;;5030673;28;20025;-66
2022/03/07 01:18:11;;;;;;;5.55;3.38;;;0.50;69.70;;;;;;5027959;28;20025;-66
2022/03/07 01:20:37;;;;;;;5.03;3.00;;;0.60;69.90;;;;;;5030435;28;20315;-66
2022/03/07 01:23:02;;;;;;;5.57;3.20;;;0.50;70.00;;;;;;5026800;28;20029;-66
2022/03/07 01:25:28;;;;;;;5.50;3.28;;;0.50;70.20;;;;;;5030768;28;20481;-66
2022/03/07 01:27:54;;;;;;;5.60;3.60;;;0.50;70.30;;;;;;5030998;28;20080;-66
2022/03/07 01:30:20;;;;;;;4.13;2.97;;;0.50;70.30;;;;;;5030079;28;20489;-66
2022/03/07 01:32:45;;;;;;;6.95;3.17;;;0.40;70.40;;;;;;5027423;28;20057;-66
2022/03/07 01:35:11;;;;;;;5.70;3.35;;;0.40;70.60;;;;;;5012455;28;20413;-66
2022/03/07 01:37:37;;;;;;;4.47;2.92;;;0.40;70.70;;;;;;5030335;28;20061;-66
2022/03/07 01:40:04;;;;;;;6.65;3.72;;;0.40;70.70;;;;;;5030630;28;20025;-66
2022/03/07 01:42:29;;;;;;;4.57;3.05;;;0.40;70.90;;;;;;5030006;28;20021;-66
2022/03/07 01:45:05;;;;;;;6.07;3.30;;;0.30;71.00;;;;;;5012577;28;20075;-66
2022/03/07 01:47:33;;;;;;;8.50;3.45;;;0.30;71.20;;;;;;5004238;28;20173;-66
2022/03/07 01:49:58;;;;;;;4.25;3.10;;;0.30;71.20;;;;;;5027501;28;20507;-66
2022/03/07 01:52:24;;;;;;;4.28;2.90;;;0.30;71.30;;;;;;5027791;28;20037;-66
2022/03/07 01:54:49;;;;;;;5.63;3.03;;;0.30;71.30;;;;;;5029992;28;20029;-66
2022/03/07 01:57:15;;;;;;;5.25;3.08;;;0.30;71.30;;;;;;5029585;28;20021;-66
2022/03/07 01:59:41;;;;;;;4.22;3.08;;;0.30;71.30;;;;;;5030943;28;20030;-66
2022/03/07 02:02:06;;;;;;;3.83;2.90;;;0.30;71.30;;;;;;5028268;28;20460;-66
2022/03/07 02:04:32;;;;;;;5.30;2.85;;;0.30;71.40;;;;;;5024970;28;20110;-66
2022/03/07 02:06:57;;;;;;;4.00;2.38;;;0.30;71.40;;;;;;5025134;28;20036;-66
2022/03/07 02:09:23;;;;;;;4.03;2.83;;;0.20;71.40;;;;;;5011858;28;20069;-66
2022/03/07 02:11:48;;;;;;;4.65;2.95;;;0.20;71.50;;;;;;5024262;28;20033;-66
2022/03/07 02:14:16;;;;;;;4.43;2.88;;;0.20;71.60;;;;;;5011926;28;20022;-66
2022/03/07 02:16:43;;;;;;;4.57;2.92;;;0.20;71.70;;;;;;5029161;28;20025;-66
2022/03/07 02:19:09;;;;;;;4.35;2.90;;;0.20;71.80;;;;;;5029508;28;20075;-66
2022/03/07 02:21:36;;;;;;;4.05;2.97;;;0.20;71.80;;;;;;5029302;28;20416;-66
2022/03/07 02:24:02;;;;;;;4.55;3.05;;;0.10;71.80;;;;;;5023834;28;20036;-66
2022/03/07 02:26:28;;;;;;;4.82;2.92;;;0.10;71.80;;;;;;5029256;28;20085;-66
2022/03/07 02:28:53;;;;;;;3.83;2.60;;;0.10;72.00;;;;;;5011458;28;20516;-66
2022/03/07 02:31:20;;;;;;;4.97;2.97;;;0.10;72.00;;;;;;5028927;28;20099;-66
2022/03/07 02:33:46;;;;;;;5.28;3.28;;;0.10;72.10;;;;;;5029522;28;20108;-66
2022/03/07 02:36:12;;;;;;;3.65;2.83;;;0.10;72.20;;;;;;5028803;28;20022;-66
2022/03/07 02:38:37;;;;;;;7.38;3.72;;;0.00;72.30;;;;;;5026337;28;20025;-66
2022/03/07 02:41:03;;;;;;;4.90;3.28;;;0.00;72.40;;;;;;5026145;28;20540;-66
2022/03/07 02:43:28;;;;;;;3.88;2.90;;;-0.10;72.60;;;;;;5003389;28;20025;-66
2022/03/07 02:45:55;;;;;;;6.65;3.45;;;-0.10;72.70;;;;;;4993968;28;20473;-66
2022/03/07 02:48:21;;;;;;;4.45;3.05;;;-0.10;72.80;;;;;;5028599;28;20134;-66
2022/03/07 02:50:47;;;;;;;7.82;3.33;;;-0.20;72.90;;;;;;5026208;28;20022;-66
2022/03/07 02:53:14;;;;;;;4.93;2.97;;;-0.20;73.10;;;;;;5026360;28;20022;-66
2022/03/07 02:55:40;;;;;;;4.03;3.05;;;-0.20;73.10;;;;;;5028471;28;20038;-66
2022/03/07 02:58:05;;;;;;;6.55;3.50;;;-0.20;73.20;;;;;;5029278;28;20110;-66
2022/03/07 03:00:32;;;;;;;5.28;2.80;;;-0.20;73.20;;;;;;5010802;28;20112;-66
2022/03/07 03:02:58;;;;;;;3.58;2.88;;;-0.20;73.30;;;;;;5026360;28;20087;-66
2022/03/07 03:05:24;;;;;;;5.95;3.20;;;-0.20;73.30;;;;;;5028424;28;20026;-66
2022/03/07 03:07:51;;;;;;;5.63;3.20;;;-0.20;73.40;;;;;;5028732;28;20025;-66
2022/03/07 03:10:20;;;;;;;4.78;3.08;;;-0.30;73.40;;;;;;5025844;28;20176;-66
2022/03/07 03:12:46;;;;;;;4.40;3.17;;;-0.30;73.50;;;;;;5028730;28;20057;-66
2022/03/07 03:15:13;;;;;;;5.03;3.33;;;-0.30;73.60;;;;;;5028411;28;20036;-66
2022/03/07 03:17:41;;;;;;;5.47;3.47;;;-0.30;73.60;;;;;;5028248;28;20481;-66
2022/03/07 03:20:10;;;;;;;3.72;3.00;;;-0.30;73.70;;;;;;5028663;28;20389;-66
2022/03/07 03:22:36;;;;;;;5.97;3.72;;;-0.30;73.70;;;;;;5028268;28;20037;-66
2022/03/07 03:25:02;;;;;;;5.72;3.28;;;-0.30;73.80;;;;;;5028252;28;20033;-66
2022/03/07 03:27:27;;;;;;;4.63;2.95;;;-0.30;73.90;;;;;;5025485;28;20021;-66
2022/03/07 03:29:53;;;;;;;5.97;3.42;;;-0.30;73.90;;;;;;5010405;28;20017;-66
2022/03/07 03:32:18;;;;;;;6.05;3.80;;;-0.40;74.00;;;;;;5028246;28;20065;-66
2022/03/07 03:34:44;;;;;;;6.13;3.47;;;-0.40;74.10;;;;;;5025589;28;20515;-66
2022/03/07 03:37:09;;;;;;;7.43;3.90;;;-0.40;74.10;;;;;;5028200;28;20028;-66
2022/03/07 03:39:35;;;;;;;5.35;3.85;;;-0.40;74.50;;;;;;5025431;28;20551;-66
2022/03/07 03:42:00;;;;;;;4.68;3.50;;;-0.50;74.50;;;;;;5027785;28;20396;-66
2022/03/07 03:44:26;;;;;;;5.25;3.70;;;-0.50;74.70;;;;;;5007616;28;20083;-66
2022/03/07 03:46:51;;;;;;;6.63;3.95;;;-0.50;74.80;;;;;;5024783;28;20067;-66
2022/03/07 03:49:17;;;;;;;6.13;4.10;;;-0.60;74.90;;;;;;5025113;28;20421;-66
2022/03/07 03:51:42;;;;;;;5.50;3.67;;;-0.50;75.10;;;;;;5028041;28;20548;-66
2022/03/07 03:54:08;;;;;;;7.70;4.32;;;-0.50;75.20;;;;;;5028054;28;20409;-66
2022/03/07 03:56:33;;;;;;;7.43;4.00;;;-0.60;75.30;;;;;;5027847;28;20029;-66
2022/03/07 03:58:59;;;;;;;5.97;3.92;;;-0.60;75.40;;;;;;5027861;28;20041;-66
2022/03/07 04:01:24;;;;;;;6.00;4.15;;;-0.60;75.70;;;;;;5025163;28;20473;-66
2022/03/07 04:03:50;;;;;;;8.07;3.60;;;-0.70;75.80;;;;;;5027963;28;20032;-66
2022/03/07 04:06:15;;;;;;;5.55;4.07;;;-0.70;75.90;;;;;;5027771;28;20029;-66
2022/03/07 04:08:54;;;;;;;6.28;4.40;;;-0.70;75.90;;;;;;5027657;28;20471;-66
2022/03/07 04:11:21;;;;;;;5.43;3.47;;;-0.60;76.00;;;;;;5028089;28;20538;-66
2022/03/07 04:13:46;;;;;;;4.90;3.33;;;-0.60;76.00;;;;;;5024324;28;20017;-67
2022/03/07 04:16:12;;;;;;;6.03;3.78;;;-0.60;76.00;;;;;;5026108;28;20503;-66
2022/03/07 04:18:37;;;;;;;5.60;3.28;;;-0.60;76.00;;;;;;5027578;28;20424;-66
2022/03/07 04:21:03;;;;;;;6.43;3.67;;;-0.70;76.00;;;;;;5027567;28;20064;-66
2022/03/07 04:23:28;;;;;;;4.20;3.05;;;-0.60;76.10;;;;;;5027641;28;20029;-66
2022/03/07 04:25:54;;;;;;;4.18;3.08;;;-0.60;76.10;;;;;;5027783;28;20017;-66
2022/03/07 04:28:19;;;;;;;5.90;3.35;;;-0.70;76.10;;;;;;5027338;28;20034;-66
2022/03/07 04:30:45;;;;;;;5.70;3.83;;;-0.60;76.20;;;;;;5027725;28;20072;-66
2022/03/07 04:33:11;;;;;;;9.13;4.18;;;-0.70;76.30;;;;;;5026576;28;20391;-66
2022/03/07 04:35:37;;;;;;;8.65;4.82;;;-0.70;76.40;;;;;;5026520;28;20033;-66
2022/03/07 04:38:03;;;;;;;6.60;4.75;;;-0.70;76.60;;;;;;5027455;28;20036;-66
2022/03/07 04:40:29;;;;;;;9.07;5.57;;;-0.70;76.70;;;;;;5027549;28;20025;-66
2022/03/07 04:42:57;;;;;;;8.88;4.80;;;-0.70;76.80;;;;;;5027597;28;20030;-66
2022/03/07 04:45:24;;;;;;;7.97;5.10;;;-0.70;77.00;;;;;;5027372;28;20571;-66
2022/03/07 04:47:49;;;;;;;6.25;4.65;;;-0.80;77.10;;;;;;5025068;28;20030;-66
2022/03/07 04:50:15;;;;;;;6.20;4.55;;;-0.80;77.20;;;;;;5027752;28;20461;-66
2022/03/07 04:52:42;;;;;;;7.80;5.60;;;-0.80;77.20;;;;;;5027516;28;20013;-66
2022/03/07 04:55:10;;;;;;;7.68;5.60;;;-0.80;77.50;;;;;;5027729;28;20033;-66
2022/03/07 04:57:36;;;;;;;6.63;4.60;;;-0.80;77.70;;;;;;5021051;28;20394;-66
2022/03/07 05:00:07;;;;;;;7.43;4.53;;;-0.80;77.70;;;;;;5030919;28;20029;-66
2022/03/07 05:02:33;;;;;;;6.80;4.78;;;-0.80;77.80;;;;;;5030878;28;20045;-66
2022/03/07 05:04:58;;;;;;;6.18;4.82;;;-0.80;77.80;;;;;;5028379;28;20029;-66
2022/03/07 05:07:24;;;;;;;6.72;4.80;;;-0.80;77.90;;;;;;5010129;28;20450;-66
2022/03/07 05:09:50;;;;;;;7.43;4.68;;;-0.90;78.10;;;;;;5011498;28;20025;-66
2022/03/07 05:12:15;;;;;;;8.60;4.93;;;-0.90;78.20;;;;;;5029455;28;20028;-66
2022/03/07 05:14:41;;;;;;;7.20;5.05;;;-0.90;78.30;;;;;;5031076;28;20029;-66
2022/03/07 05:17:06;;;;;;;7.65;4.80;;;-0.90;78.40;;;;;;5030940;28;20029;-66
2022/03/07 05:19:32;;;;;;;7.68;5.00;;;-0.90;78.40;;;;;;5012623;28;20022;-66
2022/03/07 05:21:57;;;;;;;8.50;4.28;;;-0.90;78.50;;;;;;5030498;28;20446;-66
2022/03/07 05:24:23;;;;;;;7.75;5.45;;;-0.90;78.60;;;;;;5012463;28;20014;-66
2022/03/07 05:26:49;;;;;;;7.90;5.30;;;-0.90;78.70;;;;;;5027791;28;20060;-67
2022/03/07 05:29:15;;;;;;;8.88;5.28;;;-1.00;78.80;;;;;;5025171;28;20021;-67
2022/03/07 05:31:40;;;;;;;7.63;5.55;;;-1.00;78.90;;;;;;5030271;28;20059;-67
2022/03/07 05:34:06;;;;;;;8.55;5.18;;;-1.00;79.00;;;;;;5030335;28;20026;-67
2022/03/07 05:36:31;;;;;;;9.02;5.50;;;-1.00;79.10;;;;;;5030674;28;20077;-67
2022/03/07 05:38:57;;;;;;;8.02;5.30;;;-1.00;79.10;;;;;;5012434;28;20464;-67
2022/03/07 05:41:23;;;;;;;7.53;5.53;;;-1.00;79.20;;;;;;5030045;28;20021;-67
2022/03/07 05:43:48;;;;;;;9.23;5.43;;;-1.00;79.30;;;;;;5012346;28;20540;-67
2022/03/07 05:46:14;;;;;;;7.85;5.75;;;-1.00;79.40;;;;;;5030199;28;20148;-67
2022/03/07 05:48:40;;;;;;;9.40;5.72;;;-1.00;79.50;;;;;;5011786;28;20049;-67
2022/03/07 05:51:05;;;;;;;9.40;6.28;;;-1.10;79.70;;;;;;5027433;28;20037;-67
2022/03/07 05:53:31;;;;;;;9.32;6.18;;;-1.10;79.80;;;;;;5029997;28;20495;-67
2022/03/07 05:55:56;;;;;;;10.45;6.95;;;-1.10;80.00;;;;;;5030031;28;20129;-67
2022/03/07 05:58:22;;;;;;;9.75;6.15;;;-1.10;80.20;;;;;;5029354;28;20139;-67
2022/03/07 06:00:47;;;;;;;12.57;6.45;;;-1.10;80.30;;;;;;5027591;28;20029;-67
2022/03/07 06:03:14;;;;;;;11.35;7.65;;;-1.10;80.40;;;;;;5029760;28;20028;-67
2022/03/07 06:05:39;;;;;;;11.82;6.65;;;-1.20;80.70;;;;;;5011720;28;20025;-67
2022/03/07 06:08:06;;;;;;;11.48;7.28;;;-1.20;81.00;;;;;;5029620;28;20020;-67
2022/03/07 06:10:32;;;;;;;11.15;7.07;;;-1.10;81.30;;;;;;5028794;28;20366;-67
2022/03/07 06:12:58;;;;;;;9.27;6.65;;;-1.20;81.40;;;;;;5029708;28;20048;-67
2022/03/07 06:15:23;;;;;;;9.35;6.72;;;-1.20;81.50;;;;;;5029840;28;20057;-67
2022/03/07 06:17:57;;;;;;;10.95;7.90;;;-1.20;81.40;;;;;;5029657;28;20032;-67
2022/03/07 06:20:24;;;;;;;9.93;6.80;;;-1.10;81.70;;;;;;5029139;28;20025;-67
2022/03/07 06:22:50;;;;;;;9.90;6.68;;;-1.10;81.80;;;;;;5029773;28;20022;-67
2022/03/07 06:25:16;;;;;;;10.43;6.78;;;-1.10;81.80;;;;;;5031169;28;20052;-67
2022/03/07 06:27:43;;;;;;;9.93;6.68;;;-1.10;81.80;;;;;;5015937;28;20046;-67
2022/03/07 06:30:09;;;;;;;13.48;8.32;;;-1.10;81.80;;;;;;5033100;28;20039;-67
2022/03/07 06:32:37;;;;;;;11.00;7.35;;;-1.10;81.80;;;;;;5032918;28;20029;-67
2022/03/07 06:35:04;;;;;;;11.88;8.00;;;-1.10;81.90;;;;;;5032447;28;20072;-67
2022/03/07 06:37:30;;;;;;;10.23;7.70;;;-1.10;82.00;;;;;;5015196;28;20029;-67
2022/03/07 06:39:57;;;;;;;13.88;8.13;;;-1.10;82.10;;;;;;5032369;28;20111;-67
2022/03/07 06:42:23;;;;;;;10.60;7.07;;;-1.10;82.20;;;;;;5032632;28;20389;-67
2022/03/07 06:44:48;;;;;;;11.35;7.82;;;-1.10;82.20;;;;;;5015529;28;20530;-67
2022/03/07 06:47:14;;;;;;;15.23;8.25;;;-1.00;82.40;;;;;;5032933;28;20024;-67
2022/03/07 06:49:40;;;;;;;12.85;7.38;;;-1.00;82.60;;;;;;5032056;28;20073;-67
2022/03/07 06:52:06;;;;;;;11.65;7.40;;;-1.00;82.70;;;;;;5032779;28;20033;-67
2022/03/07 06:54:32;;;;;;;12.35;8.00;;;-1.00;82.70;;;;;;5032414;28;20473;-67
2022/03/07 06:56:57;;;;;;;11.40;7.20;;;-0.90;82.80;;;;;;5032770;28;20086;-67
2022/03/07 06:59:23;;;;;;;13.55;8.30;;;-0.90;82.70;;;;;;5032581;28;20036;-67
2022/03/07 07:01:48;;;;;;;12.45;8.18;;;-0.90;82.90;;;;;;5032614;28;20032;-67
2022/03/07 07:04:14;;;;;;;12.10;7.90;;;-0.90;82.90;;;;;;5031927;28;20032;-67
2022/03/07 07:06:39;;;;;;;13.45;8.65;;;-0.80;83.00;;;;;;5031951;28;20058;-67
2022/03/07 07:09:05;;;;;;;12.93;7.93;;;-0.80;83.00;;;;;;5031587;28;20385;-67
2022/03/07 07:11:30;;;;;;;12.43;8.45;;;-0.80;83.10;;;;;;5031617;28;20163;-67
2022/03/07 07:13:56;;;;;;;11.43;7.53;;;-0.70;83.10;;;;;;5032508;28;20109;-67
2022/03/07 07:16:21;;;;;;;11.77;8.25;;;-0.70;83.10;;;;;;5032338;28;20125;-67
2022/03/07 07:18:47;;;;;;;11.93;8.10;;;-0.60;83.20;;;;;;5032249;28;20392;-67
2022/03/07 07:21:12;;;;;;;15.00;9.35;;;-0.60;83.10;;;;;;5029103;28;20017;-67
2022/03/07 07:23:38;;;;;;;12.32;8.77;;;-0.60;83.30;;;;;;5032393;28;20392;-67
2022/03/07 07:26:05;;;;;;;12.88;7.97;;;-0.50;83.30;;;;;;5031920;28;20075;-67
2022/03/07 07:28:30;;;;;;;13.13;9.95;;;-0.50;83.30;;;;;;5031327;28;20030;-67
2022/03/07 07:30:56;;;;;;;13.10;8.52;;;-0.40;83.40;;;;;;5032197;28;20233;-67
2022/03/07 07:33:22;;;;;;;11.50;8.18;;;-0.40;83.50;;;;;;5032008;28;20029;-67
2022/03/07 07:35:47;;;;;;;12.95;8.82;;;-0.30;83.40;;;;;;5030930;28;20033;-67
2022/03/07 07:38:13;;;;;;;11.85;7.95;;;-0.30;83.40;;;;;;5032170;28;20083;-67
2022/03/07 07:40:39;;;;;;;13.05;8.98;;;-0.20;83.40;;;;;;5031920;28;20039;-67
2022/03/07 07:43:05;;;;;;;13.40;9.02;;;-0.20;83.40;;;;;;5030191;28;20473;-67
2022/03/07 07:45:30;;;;;;;12.55;8.35;;;-0.10;83.40;;;;;;5029012;28;20041;-67
2022/03/07 07:47:58;;;;;;;12.98;8.05;;;-0.10;83.40;;;;;;5028048;28;20014;-67
2022/03/07 07:50:24;;;;;;;11.30;7.60;;;0.00;83.30;;;;;;5028145;28;20034;-67
2022/03/07 07:52:50;;;;;;;11.65;8.00;;;0.00;83.30;;;;;;5029731;28;20021;-67
2022/03/07 07:55:15;;;;;;;12.15;8.20;;;0.10;83.30;;;;;;5030949;28;20025;-67
2022/03/07 07:57:41;;;;;;;14.88;8.52;;;0.20;83.30;;;;;;5030297;28;20029;-66
2022/03/07 08:00:08;;;;;;;10.93;8.40;;;0.30;83.20;;;;;;5032108;28;20599;-67
2022/03/07 08:02:34;;;;;;;13.35;9.20;;;0.30;83.10;;;;;;5031562;28;20040;-67
2022/03/07 08:04:59;;;;;;;14.75;8.90;;;0.40;83.20;;;;;;5014072;28;20022;-67
2022/03/07 08:07:25;;;;;;;12.57;9.18;;;0.40;83.20;;;;;;5031556;28;20057;-67
2022/03/07 08:09:51;;;;;;;14.38;9.43;;;0.50;83.20;;;;;;5014008;28;20041;-67
2022/03/07 08:12:18;;;;;;;14.30;9.15;;;0.60;83.30;;;;;;5031728;28;20032;-67
2022/03/07 08:14:44;;;;;;;14.15;10.90;;;0.60;83.40;;;;;;5031648;28;20021;-67
2022/03/07 08:17:11;;;;;;;17.13;10.93;;;0.70;83.60;;;;;;5031600;28;20057;-67
2022/03/07 08:19:37;;;;;;;11.48;9.40;;;0.80;83.80;;;;;;5013857;28;20067;-67
2022/03/07 08:22:03;;;;;;;16.67;10.35;;;0.80;83.90;;;;;;5031545;28;20029;-67
2022/03/07 08:24:29;;;;;;;12.75;9.50;;;0.90;83.90;;;;;;5031486;28;20076;-67
2022/03/07 08:26:54;;;;;;;15.18;11.30;;;1.00;83.90;;;;;;5030755;28;20029;-67
2022/03/07 08:29:20;;;;;;;16.58;11.10;;;1.10;84.00;;;;;;5009425;28;20026;-67
2022/03/07 08:31:45;;;;;;;16.25;11.25;;;1.10;84.10;;;;;;5011603;28;20052;-67
2022/03/07 08:34:11;;;;;;;16.65;11.07;;;1.20;84.00;;;;;;5013669;28;20053;-67
2022/03/07 08:36:36;;;;;;;15.80;10.73;;;1.30;84.00;;;;;;5015407;28;20045;-67
2022/03/07 08:39:03;;;;;;;17.73;12.60;;;1.40;84.00;;;;;;5015700;28;20030;-67
2022/03/07 08:41:28;;;;;;;15.27;10.20;;;1.50;84.30;;;;;;5015265;28;20062;-67
2022/03/07 08:43:55;;;;;;;16.88;11.45;;;1.50;84.30;;;;;;5014412;28;20057;-67
2022/03/07 08:46:21;;;;;;;15.48;10.68;;;1.60;84.30;;;;;;5015316;28;20096;-67
2022/03/07 08:48:47;;;;;;;17.08;11.55;;;1.70;84.40;;;;;;5015171;28;20041;-67
2022/03/07 08:51:12;;;;;;;14.18;11.15;;;1.80;84.40;;;;;;5013968;28;20022;-67
2022/03/07 08:53:38;;;;;;;15.35;11.95;;;1.90;84.60;;;;;;5024202;28;20033;-67
2022/03/07 08:56:04;;;;;;;16.48;10.35;;;2.00;84.60;;;;;;5034940;28;20032;-67
2022/03/07 08:58:29;;;;;;;12.48;9.40;;;2.10;84.50;;;;;;5034794;28;20030;-67
2022/03/07 09:00:55;;;;;;;12.93;9.43;;;2.20;84.30;;;;;;5034819;28;20025;-67
2022/03/07 09:03:20;;;;;;;14.35;9.60;;;2.30;84.20;;;;;;5034600;28;20029;-67
2022/03/07 09:05:46;;;;;;;16.30;10.75;;;2.40;84.00;;;;;;5034669;28;20535;-67
2022/03/07 09:08:11;;;;;;;12.07;9.80;;;2.50;83.90;;;;;;5034813;28;20031;-67
2022/03/07 09:10:37;;;;;;;13.32;10.40;;;2.50;83.70;;;;;;5016793;28;20084;-67
2022/03/07 09:13:02;;;;;;;13.27;10.10;;;2.60;83.60;;;;;;5033759;28;20034;-67
2022/03/07 09:15:28;;;;;;;17.00;10.95;;;2.80;83.50;;;;;;5016647;28;20036;-67
2022/03/07 09:17:54;;;;;;;12.98;9.95;;;2.80;83.30;;;;;;5034610;28;20108;-67
2022/03/07 09:20:20;;;;;;;12.20;8.73;;;2.90;83.10;;;;;;5034323;28;20025;-66
2022/03/07 09:22:46;;;;;;;12.75;9.43;;;3.00;82.90;;;;;;5034380;28;20524;-67
2022/03/07 09:25:13;;;;;;;12.43;9.13;;;3.10;82.50;;;;;;5034498;28;20032;-66
2022/03/07 09:27:39;;;;;;;10.48;7.95;;;3.20;82.00;;;;;;5034251;28;20383;-66
2022/03/07 09:30:06;;;;;;;8.10;6.32;;;3.30;81.20;;;;;;5034278;28;20101;-67
2022/03/07 09:32:32;;;;;;;6.22;4.60;;;3.40;78.80;;;;;;5034049;28;20037;-66
2022/03/07 09:34:58;;;;;;;7.15;4.55;;;3.50;76.80;;;;;;5034187;28;20030;-68
2022/03/07 09:37:23;;;;;;;5.93;3.92;;;3.60;75.70;;;;;;5033881;28;20026;-67
2022/03/07 09:39:49;;;;;;;5.65;4.25;;;3.80;74.90;;;;;;5034212;28;20500;-67
2022/03/07 09:42:14;;;;;;;4.70;3.65;;;3.90;72.10;;;;;;5033947;28;20029;-67
2022/03/07 09:44:40;;;;;;;7.00;3.85;;;4.00;70.80;;;;;;5032750;28;20026;-66
2022/03/07 09:47:06;;;;;;;7.38;3.80;;;4.10;68.00;;;;;;5034042;28;20465;-67
2022/03/07 09:49:32;;;;;;;8.80;4.00;;;4.20;67.70;;;;;;5033758;28;20053;-67
2022/03/07 09:51:58;;;;;;;5.93;3.50;;;4.30;65.30;;;;;;5033921;28;20580;-67
2022/03/07 09:54:25;;;;;;;4.68;3.42;;;4.50;65.90;;;;;;5033702;28;20500;-67
2022/03/07 09:56:52;;;;;;;4.45;3.03;;;4.60;66.10;;;;;;5033891;28;20036;-67
2022/03/07 09:59:18;;;;;;;6.93;3.42;;;4.80;66.20;;;;;;5033618;28;20037;-67
2022/03/07 10:01:44;;;;;;;6.43;3.63;;;5.00;65.00;;;;;;5033420;28;20029;-67
2022/03/07 10:04:12;;;;;;;5.45;2.88;;;5.20;63.70;;;;;;5034007;28;20538;-67
2022/03/07 10:06:47;;;;;;;5.13;3.17;;;5.30;60.90;;;;;;5033359;28;20858;-67
2022/03/07 10:09:19;;;;;;;5.03;2.92;;;5.50;61.50;;;;;;5033643;28;20024;-66
2022/03/07 10:11:50;;;;;;;4.00;2.95;;;5.70;60.80;;;;;;5033574;28;20390;-67
2022/03/07 10:14:15;;;;;;;5.43;3.47;;;5.80;60.30;;;;;;5033594;28;20112;-67
2022/03/07 10:16:43;;;;;;;4.60;3.05;;;6.00;61.00;;;;;;5015615;28;20108;-67
2022/03/07 10:19:11;;;;;;;3.83;3.20;;;6.30;61.40;;;;;;5033493;28;20111;-67
2022/03/07 10:21:37;;;;;;;3.60;2.83;;;6.50;61.10;;;;;;5033207;28;20029;-67
2022/03/07 10:24:03;;;;;;;4.70;3.33;;;6.80;60.80;;;;;;5033251;28;20022;-67
2022/03/07 10:26:34;;;;;;;5.25;3.20;;;7.10;60.30;;;;;;5033243;28;20566;-67
2022/03/07 10:29:00;;;;;;;4.10;3.05;;;7.40;59.30;;;;;;5026010;28;20084;-67
2022/03/07 10:31:29;;;;;;;5.38;3.40;;;7.60;58.40;;;;;;5032099;28;20037;-67
2022/03/07 10:34:08;;;;;;;4.80;3.55;;;8.00;58.60;;;;;;5031203;28;20041;-67
2022/03/07 10:36:39;;;;;;;3.42;2.67;;;8.50;56.20;;;;;;5033072;28;20028;-67
2022/03/07 10:39:07;;;;;;;4.90;2.85;;;8.80;56.90;;;;;;5027587;28;20060;-67
2022/03/07 10:41:37;;;;;;;4.28;2.80;;;9.40;58.50;;;;;;5030823;28;20033;-67
2022/03/07 10:44:05;;;;;;;4.63;2.75;;;11.60;57.40;;;;;;5031435;28;20021;-67
2022/03/07 10:46:32;;;;;;;4.38;2.65;;;15.00;50.50;;;;;;5014324;28;20461;-68
2022/03/07 10:48:57;;;;;;;3.38;2.58;;;18.20;45.10;;;;;;5032475;28;20061;-68
2022/03/07 10:51:25;;;;;;;3.72;2.35;;;20.80;39.90;;;;;;5032947;28;20456;-68
2022/03/07 10:53:51;;;;;;;3.67;2.10;;;23.40;37.80;;;;;;5031459;28;20108;-68
2022/03/07 10:56:18;;;;;;;2.45;1.60;;;26.00;34.70;;;;;;5031517;28;20030;-68
2022/03/07 10:58:54;;;;;;;2.95;1.58;;;28.20;32.10;;;;;;5028391;28;20551;-68
2022/03/07 11:01:33;;;;;;;2.97;1.35;;;30.00;30.60;;;;;;5031664;28;20025;-68
2022/03/07 11:03:59;;;;;;;2.03;1.50;;;31.90;28.80;;;;;;5031028;28;20481;-68
2022/03/07 11:06:26;;;;;;;2.28;1.30;;;33.30;27.30;;;;;;5024356;28;20033;-68
2022/03/07 11:08:52;;;;;;;3.80;1.90;;;34.10;27.30;;;;;;5031500;28;20337;-68
2022/03/07 11:11:20;;;;;;;2.28;1.40;;;34.80;25.10;;;;;;5032065;28;20033;-68
2022/03/07 11:13:50;;;;;;;3.47;1.65;;;34.90;24.80;;;;;;5032266;28;20481;-68
2022/03/07 11:16:16;;;;;;;2.15;1.50;;;34.10;24.20;;;;;;5032470;28;20022;-68
2022/03/07 11:18:54;;;;;;;2.35;1.50;;;34.70;24.90;;;;;;5031971;28;20446;-66
2022/03/07 11:21:21;;;;;;;2.13;1.58;;;36.20;25.30;;;;;;5031878;28;20029;-66
2022/03/07 11:23:47;;;;;;;1.63;1.27;;;36.40;23.10;;;;;;5031038;28;20029;-66
2022/03/07 11:26:13;;;;;;;1.65;1.33;;;35.40;23.90;;;;;;5047619;28;20401;-66
2022/03/07 11:28:39;;;;;;;3.10;1.65;;;36.60;24.20;;;;;;5031260;28;20069;-66
2022/03/07 11:31:05;;;;;;;1.48;1.20;;;37.90;24.10;;;;;;5030538;28;20394;-66
2022/03/07 11:33:33;;;;;;;3.63;1.98;;;39.20;24.30;;;;;;5030406;28;20052;-67
2022/03/07 11:36:00;;;;;;;1.83;1.30;;;40.00;23.10;;;;;;5027724;28;20056;-67
2022/03/07 11:38:35;;;;;;;1.55;1.30;;;40.70;23.60;;;;;;5030313;28;20021;-66
2022/03/07 11:41:09;;;;;;;2.08;1.40;;;41.50;23.30;;;;;;5027911;28;20034;-67
2022/03/07 11:44:00;;;;;;;1.75;1.50;;;42.20;23.20;;;;;;5029955;28;20032;-66
2022/03/07 11:46:35;;;;;;;2.38;1.45;;;42.50;22.60;;;;;;5018105;28;20116;-67
2022/03/07 11:49:02;;;;;;;2.83;1.63;;;42.40;22.00;;;;;;5030104;28;20048;-67
2022/03/07 11:51:32;;;;;;;2.35;1.40;;;42.10;22.30;;;;;;5023495;28;20463;-67
2022/03/07 11:53:59;;;;;;;3.10;1.50;;;42.70;22.50;;;;;;5030067;28;20420;-67
2022/03/07 11:56:36;;;;;;;2.08;1.50;;;43.10;22.10;;;;;;5030902;28;20021;-66
2022/03/07 11:59:04;;;;;;;2.60;1.83;;;43.00;21.70;;;;;;5009521;28;20022;-66
2022/03/07 12:01:31;;;;;;;2.42;1.17;;;42.80;21.80;;;;;;5028489;28;20021;-66
2022/03/07 12:04:08;;;;;;;1.63;1.40;;;43.20;22.20;;;;;;5029096;28;20100;-67
2022/03/07 12:06:41;;;;;;;2.20;1.73;;;43.80;22.10;;;;;;5030255;28;20025;-67
2022/03/07 12:09:08;;;;;;;2.92;1.63;;;43.00;21.40;;;;;;5014260;28;20271;-67
2022/03/07 12:11:35;;;;;;;2.72;1.55;;;41.80;21.60;;;;;;5034332;28;20488;-66
2022/03/07 12:14:04;;;;;;;2.63;1.73;;;41.10;21.40;;;;;;5034126;28;20017;-67
2022/03/07 12:16:34;;;;;;;1.92;1.45;;;40.70;21.50;;;;;;5034007;28;20021;-66
2022/03/07 12:19:20;;;;;;;1.80;1.60;;;40.60;21.70;;;;;;5031780;28;20022;-66
2022/03/07 12:21:47;;;;;;;1.83;1.30;;;40.60;21.70;;;;;;5033439;28;20562;-66
2022/03/07 12:24:16;;;;;;;1.58;1.48;;;40.70;21.70;;;;;;5034053;28;20469;-67
2022/03/07 12:26:56;;;;;;;2.20;1.40;;;40.50;21.70;;;;;;5033723;28;20096;-66
2022/03/07 12:29:24;;;;;;;1.88;1.30;;;40.30;21.80;;;;;;5033665;28;20417;-66
2022/03/07 12:31:56;;;;;;;;;;;40.10;21.80;;;;;;5034260;28;20108;-66
2022/03/07 12:34:24;;;;;;;1.73;1.50;;;40.20;21.90;;;;;;5028793;28;19916;-66
2022/03/07 12:36:59;;;;;;;1.70;1.20;;;40.20;21.90;;;;;;5033610;28;20017;-66
2022/03/07 12:39:29;;;;;;;1.40;1.20;;;40.00;21.90;;;;;;5031238;28;20064;-67
2022/03/07 12:42:00;;;;;;;3.47;1.52;;;39.90;21.80;;;;;;5031573;28;20038;-67
2022/03/07 12:44:26;;;;;;;2.80;1.98;;;39.90;21.90;;;;;;5032682;28;20025;-67